SCEL/SCL METAR and TAF weather

Enter ICAO airport designator
Station Type Date Time Source
SCEL METAR 2019/04/25 12:00 UTC NOAA

SCEL 251200Z 18003KT 130V210 4000 BR BKN020 12/10 Q1018 NOSIG


Station Type Date Time Source
SCEL Decoded METAR 2019/04/25 12:00 UTC NOAA

Pudahuel, Chile (SCEL) 33-23S 070-47W 476M
Apr 25, 2019 - 08:00 AM EDT / 2019.04.25 1200 UTC
Wind: from the S (180 degrees) at 3 MPH (3 KT) (direction variable):0
Visibility: 2 mile(s):0
Sky conditions: mostly cloudy
Weather: mist
Temperature: 53 F (12 C)
Dew Point: 50 F (10 C)
Relative Humidity: 87%
Pressure (altimeter): 30.06 in. Hg (1018 hPa)
ob: SCEL 251200Z 18003KT 130V210 4000 BR BKN020 12/10 Q1018 NOSIG
cycle: 12

Station Type Date Time Source
SCEL TAF 2019/04/25 12:03 UTC NOAA

TAF SCEL 251015Z 2512/2612 16004KT 5000 BR BKN025 TX18/2518Z TN06/2611Z
BECMG 2514/2516 7000 FEW030
BECMG 2517/2519 19012KT CAVOK
BECMG 2600/2602 16004KT
BECMG 2606/2608 7000 NSC

Example: see airport list